Aviation Digital Data Service (ADDS)

Output produced by METARs form (1326 UTC 17 September 2019)
found at http://www.aviationweather.gov/metar/data/
 
Forecast for: MNMG (MANAGUA/AUGUSTO , NI)
Text: MNMG 171000Z 1712/1812 15006KT 9999 FEW022 SCT070
Forecast period: 1200 to 1400 UTC 17 September 2019
Forecast type: FROM: standard forecast or significant change
Winds: from the SSE (150 degrees) at 7 MPH (6 knots; 3.1 m/s)
Visibility: 6 or more miles 10+ km)
Ceiling: at least 12,000 feet AGL
Clouds: few clouds at 2200 feet AGL
scattered clouds at 7000 feet AGL
Weather: no significant weather forecast for this period
Text: BECMG 1714/1716 10012KT SCT022
Forecast period: 1400 UTC 17 September 2019 to 1200 UTC 18 September 2019
Forecast type: BECOMING: Conditions expected to become as follows by 1600 UTC 17 September 2019
Winds: from the E (100 degrees) at 14 MPH (12 knots; 6.2 m/s)
Visibility: 6 or more miles 10+ km)
Ceiling: at least 12,000 feet AGL
Clouds: scattered clouds at 2200 feet AGL
Weather: no significant weather forecast for this period
Text: TEMPO 1722/1804 5000 TSRA FEW022CB
Forecast period: 2200 UTC 17 September 2019 to 0400 UTC 18 September 2019
Forecast type: TEMPORARY: The following changes expected for less than half the time period
Visibility: 3 miles (5 km)
Ceiling: at least 12,000 feet AGL
Clouds: few clouds at 2200 feet AGL
Weather: TSRA  (rain associated with thunderstorm(s))